createdAt,value
2019-05-18T00:00:50.934Z,391.50
2019-05-18T00:05:50.812Z,295.10
2019-05-18T00:10:50.770Z,513.10
2019-05-18T00:15:50.642Z,539.20
2019-05-18T00:20:50.649Z,264.40
2019-05-18T00:25:50.621Z,287.90
2019-05-18T00:30:50.623Z,553.30
2019-05-18T00:35:59.877Z,272.80
2019-05-18T00:40:50.300Z,245.50
2019-05-18T00:45:50.266Z,375.10
2019-05-18T00:50:50.208Z,407.40
2019-05-18T00:55:50.216Z,444.70
2019-05-18T01:00:50.094Z,312.50
2019-05-18T01:05:50.035Z,449.40
2019-05-18T01:10:49.989Z,229.40
2019-05-18T01:15:49.906Z,484.70
2019-05-18T01:20:49.868Z,295.50
2019-05-18T01:25:49.837Z,425.50
2019-05-18T01:30:49.774Z,232.60
2019-05-18T01:35:49.909Z,177.50
2019-05-18T01:40:49.816Z,306.50
2019-05-18T01:45:51.570Z,303.20
2019-05-18T01:50:49.689Z,324.00
2019-05-18T01:55:49.642Z,310.10
2019-05-18T02:00:49.553Z,435.80
2019-05-18T02:05:49.481Z,393.80
2019-05-18T02:10:49.533Z,198.00
2019-05-18T02:15:49.392Z,107.00
2019-05-18T02:20:49.357Z,287.10
2019-05-18T02:25:49.309Z,602.60
2019-05-18T02:30:49.208Z,215.70
2019-05-18T02:35:49.166Z,283.00
2019-05-18T02:40:49.110Z,170.50
2019-05-18T02:45:49.076Z,198.60
2019-05-18T02:50:49.006Z,155.90
2019-05-18T02:55:49.005Z,455.10
2019-05-18T03:00:48.944Z,292.40
2019-05-18T03:05:48.876Z,392.00
2019-05-18T03:10:48.808Z,114.70
2019-05-18T03:15:48.733Z,174.20
2019-05-18T03:20:48.770Z,222.40
2019-05-18T03:25:48.777Z,142.90
2019-05-18T03:30:48.656Z,214.00
2019-05-18T03:35:48.621Z,66.60
2019-05-18T03:40:48.485Z,59.70
2019-05-18T03:45:48.426Z,118.80
2019-05-18T03:50:48.332Z,70.70
2019-05-18T03:55:48.289Z,63.20
2019-05-18T04:00:48.242Z,80.60
2019-05-18T04:05:48.166Z,74.20
2019-05-18T04:10:48.094Z,75.80
2019-05-18T04:15:48.034Z,58.80
2019-05-18T04:20:48.006Z,60.10
2019-05-18T04:25:47.956Z,62.00
2019-05-18T04:30:47.879Z,81.90
2019-05-18T04:35:47.944Z,101.50
2019-05-18T04:40:47.917Z,315.70
2019-05-18T04:45:47.711Z,329.10
2019-05-18T04:50:47.763Z,156.80
2019-05-18T04:55:47.705Z,139.90
2019-05-18T05:00:47.635Z,403.60
2019-05-18T05:05:47.563Z,294.50
2019-05-18T05:10:47.477Z,147.60
2019-05-18T05:15:47.427Z,61.30
2019-05-18T05:20:47.346Z,81.30
2019-05-18T05:25:47.282Z,61.40
2019-05-18T05:30:47.231Z,65.90
2019-05-18T05:35:47.179Z,41.50
2019-05-18T05:40:47.105Z,71.90
2019-05-18T05:45:47.070Z,45.50
2019-05-18T05:50:47.020Z,60.60
2019-05-18T05:55:47.036Z,51.00
2019-05-18T06:00:46.980Z,58.70
2019-05-18T06:05:46.988Z,63.50
2019-05-18T06:10:47.982Z,53.40
2019-05-18T06:15:46.801Z,38.40
2019-05-18T06:20:51.575Z,41.60
2019-05-18T06:25:47.677Z,33.40
2019-05-18T06:30:46.776Z,30.10
2019-05-18T06:35:46.673Z,33.60
2019-05-18T06:40:46.546Z,35.30
2019-05-18T06:45:55.888Z,29.80
2019-05-18T06:50:46.426Z,29.10
2019-05-18T06:55:46.291Z,31.00
2019-05-18T07:00:46.234Z,35.90
2019-05-18T07:05:46.207Z,55.20
2019-05-18T07:10:46.140Z,94.60
2019-05-18T07:15:46.114Z,42.70
2019-05-18T07:20:46.433Z,49.60
2019-05-18T07:25:46.031Z,37.80
2019-05-18T07:30:45.967Z,29.30
2019-05-18T07:35:46.264Z,34.30
2019-05-18T07:40:46.932Z,32.40
2019-05-18T07:45:45.910Z,28.90
2019-05-18T07:50:45.804Z,29.30
2019-05-18T07:55:45.819Z,27.90
2019-05-18T08:00:45.871Z,27.70
2019-05-18T08:05:45.632Z,26.80
2019-05-18T08:10:45.581Z,29.70
2019-05-18T08:15:45.527Z,27.80
2019-05-18T08:20:45.529Z,30.50
2019-05-18T08:25:45.728Z,27.00
2019-05-18T08:30:45.417Z,27.70
2019-05-18T08:35:45.336Z,27.00
2019-05-18T08:40:45.301Z,27.80
2019-05-18T08:45:45.262Z,27.40
2019-05-18T08:50:45.222Z,29.60
2019-05-18T08:55:45.155Z,26.80
2019-05-18T09:00:45.134Z,30.30
2019-05-18T09:05:45.054Z,31.80
2019-05-18T09:10:45.001Z,30.10
2019-05-18T09:15:44.944Z,26.80
2019-05-18T09:20:44.950Z,25.70
2019-05-18T09:25:44.872Z,24.40
2019-05-18T09:30:44.801Z,25.50
2019-05-18T09:35:44.793Z,26.10
2019-05-18T09:40:44.753Z,25.70
2019-05-18T09:45:44.681Z,26.40
2019-05-18T09:50:44.669Z,28.10
2019-05-18T09:55:44.616Z,25.30
2019-05-18T10:00:44.536Z,24.40
2019-05-18T10:05:44.561Z,25.00
2019-05-18T10:10:44.498Z,25.30
2019-05-18T10:15:44.516Z,25.50
2019-05-18T10:20:44.399Z,27.20
2019-05-18T10:25:44.339Z,25.60
2019-05-18T10:30:44.294Z,25.00
2019-05-18T10:35:44.270Z,23.30
2019-05-18T10:40:44.182Z,21.40
2019-05-18T10:45:45.193Z,27.50
2019-05-18T10:50:44.236Z,23.20
2019-05-18T10:55:44.056Z,18.20
2019-05-18T11:00:44.089Z,24.40
2019-05-18T11:05:44.020Z,18.10
2019-05-18T11:10:43.926Z,18.50
2019-05-18T11:15:43.898Z,18.80
2019-05-18T11:20:43.913Z,17.70
2019-05-18T11:25:43.849Z,17.50
2019-05-18T11:30:43.732Z,17.70
2019-05-18T11:35:43.712Z,16.30
2019-05-18T11:40:43.699Z,17.00
2019-05-18T11:45:43.610Z,16.90
2019-05-18T11:50:43.573Z,17.30
2019-05-18T11:55:43.539Z,16.00
2019-05-18T12:00:43.513Z,16.40
2019-05-18T12:05:43.549Z,18.50
2019-05-18T12:10:43.473Z,17.00
2019-05-18T12:15:43.353Z,17.80
2019-05-18T12:20:43.315Z,19.00
2019-05-18T12:25:43.286Z,18.60
2019-05-18T12:30:43.249Z,21.90
2019-05-18T12:35:43.177Z,18.20
2019-05-18T12:40:43.297Z,16.50
2019-05-18T12:45:43.090Z,13.50
2019-05-18T12:50:43.066Z,13.20
2019-05-18T12:55:51.945Z,14.10
2019-05-18T13:00:42.939Z,12.90
2019-05-18T13:05:42.927Z,15.20
2019-05-18T13:10:42.858Z,15.70
2019-05-18T13:15:42.852Z,17.30
2019-05-18T13:20:42.883Z,17.70
2019-05-18T13:25:42.748Z,15.10
2019-05-18T13:30:42.650Z,16.30
2019-05-18T13:35:45.504Z,21.10
2019-05-18T13:40:42.646Z,17.80
2019-05-18T13:45:42.518Z,17.60
2019-05-18T13:50:44.742Z,19.20
2019-05-18T13:55:42.491Z,16.50
2019-05-18T14:00:42.364Z,17.90
2019-05-18T14:05:42.331Z,17.20
2019-05-18T14:10:42.267Z,16.30
2019-05-18T14:15:42.206Z,15.40
2019-05-18T14:20:42.390Z,15.80
2019-05-18T14:25:42.145Z,15.30
2019-05-18T14:30:44.394Z,14.50
2019-05-18T14:35:48.751Z,16.70
2019-05-18T14:40:42.036Z,16.20
2019-05-18T14:45:42.095Z,16.50
2019-05-18T14:50:42.033Z,15.60
2019-05-18T14:55:41.850Z,18.20
2019-05-18T15:00:41.901Z,17.50
2019-05-18T15:05:41.826Z,18.70
2019-05-18T15:10:41.755Z,19.90
2019-05-18T15:15:41.663Z,17.50
2019-05-18T15:20:41.679Z,19.50
2019-05-18T15:25:50.145Z,20.20
2019-05-18T15:30:42.577Z,19.60
2019-05-18T15:35:41.514Z,23.80
2019-05-18T15:40:41.550Z,19.70
2019-05-18T15:45:41.481Z,16.80
2019-05-18T15:50:41.406Z,18.30
2019-05-18T15:55:41.361Z,18.10
2019-05-18T16:00:41.323Z,14.20
2019-05-18T16:05:43.196Z,17.50
2019-05-18T16:10:44.527Z,17.20
2019-05-18T16:15:41.116Z,16.50
2019-05-18T16:20:41.026Z,16.30
2019-05-18T16:25:40.990Z,15.80
2019-05-18T16:30:40.967Z,16.70
2019-05-18T16:35:40.988Z,18.30
2019-05-18T16:40:40.820Z,17.30
2019-05-18T16:45:40.804Z,18.20
2019-05-18T16:50:40.743Z,15.90
2019-05-18T16:55:40.639Z,14.30
2019-05-18T17:00:40.815Z,13.20
2019-05-18T17:05:40.623Z,11.20
2019-05-18T17:10:40.609Z,4.30
2019-05-18T17:15:40.513Z,4.90
2019-05-18T17:20:40.583Z,3.80
2019-05-18T17:25:40.385Z,3.00
2019-05-18T17:30:42.623Z,4.60
2019-05-18T17:35:40.241Z,4.10
2019-05-18T17:40:40.203Z,4.70
2019-05-18T17:45:40.163Z,5.30
2019-05-18T17:50:40.121Z,5.00
2019-05-18T17:55:40.062Z,4.70
2019-05-18T18:00:40.002Z,5.20
2019-05-18T18:05:39.941Z,5.20
2019-05-18T18:10:39.892Z,4.90
2019-05-18T18:15:39.916Z,4.50
2019-05-18T18:20:39.888Z,5.80
2019-05-18T18:25:40.224Z,6.20
2019-05-18T18:30:41.685Z,5.80
2019-05-18T18:35:39.832Z,6.40
2019-05-18T18:40:39.619Z,7.00
2019-05-18T18:45:39.621Z,6.30
2019-05-18T18:50:39.501Z,5.10
2019-05-18T18:55:41.509Z,6.50
2019-05-18T19:00:39.427Z,9.20
2019-05-18T19:05:39.355Z,10.50
2019-05-18T19:10:39.240Z,8.40
2019-05-18T19:15:39.166Z,8.30
2019-05-18T19:20:39.126Z,8.90
2019-05-18T19:25:39.066Z,9.60
2019-05-18T19:30:48.241Z,10.80
2019-05-18T19:35:38.948Z,9.30
2019-05-18T19:40:38.918Z,9.30
2019-05-18T19:45:38.847Z,9.90
2019-05-18T19:50:38.807Z,9.60
2019-05-18T19:55:38.729Z,9.80
2019-05-18T20:00:38.723Z,10.10
2019-05-18T20:05:38.800Z,12.10
2019-05-18T20:10:38.645Z,11.80
2019-05-18T20:15:38.527Z,13.60
2019-05-18T20:20:38.471Z,13.70
2019-05-18T20:25:38.446Z,14.00
2019-05-18T20:30:38.357Z,13.00
2019-05-18T20:35:38.324Z,13.20
2019-05-18T20:40:38.257Z,15.30
2019-05-18T20:45:38.203Z,15.80
2019-05-18T20:50:38.145Z,17.90
2019-05-18T20:55:38.109Z,20.10
2019-05-18T21:00:38.832Z,18.00
2019-05-18T21:05:38.061Z,19.00
2019-05-18T21:10:38.017Z,19.80
2019-05-18T21:15:37.890Z,16.60
2019-05-18T21:20:37.832Z,15.80
2019-05-18T21:25:37.763Z,15.50
2019-05-18T21:30:37.728Z,16.60
2019-05-18T21:35:37.673Z,19.40
2019-05-18T21:40:37.620Z,19.10
2019-05-18T21:45:37.554Z,19.30
2019-05-18T21:50:37.501Z,19.10
2019-05-18T21:55:37.462Z,17.20
2019-05-18T22:00:37.655Z,19.80
2019-05-18T22:05:37.350Z,19.50
2019-05-18T22:10:37.279Z,20.50
2019-05-18T22:15:37.228Z,20.60
2019-05-18T22:20:43.130Z,20.90
2019-05-18T22:25:38.151Z,19.80
2019-05-18T22:30:37.086Z,20.50
2019-05-18T22:35:37.019Z,21.80
2019-05-18T22:40:36.948Z,20.70
2019-05-18T22:45:36.935Z,21.40
2019-05-18T22:50:36.857Z,22.10
2019-05-18T22:55:36.808Z,23.10
2019-05-18T23:00:36.727Z,23.70
2019-05-18T23:05:36.697Z,25.60
2019-05-18T23:10:36.623Z,26.00
2019-05-18T23:15:36.561Z,28.10
2019-05-18T23:20:36.505Z,26.90
2019-05-18T23:25:36.499Z,27.10
2019-05-18T23:30:36.397Z,25.30
2019-05-18T23:35:36.365Z,27.10
2019-05-18T23:40:36.297Z,26.10
2019-05-18T23:45:36.269Z,25.40
2019-05-18T23:50:36.201Z,28.50
2019-05-18T23:55:36.138Z,30.30
